Time;durP1;ratioP1;P1;durP2;ratioP2;P2;SDS_P1;SDS_P2;PMS_P1;PMS_P2;Temp;Humidity;BMP_temperature;BMP_pressure;BME280_temperature;BME280_humidity;BME280_pressure;Samples;Min_cycle;Max_cycle;Signal;HPM_P1;HPM_P2
2022/03/05 00:01:02;;;;;;;;;56.00;44.50;;;;;12.13;64.33;101589.91;5093215;27;45369;-79
2022/03/05 00:03:27;;;;;;;;;56.75;43.75;;;;;12.14;64.21;101593.44;5091747;27;45684;-80
2022/03/05 00:05:52;;;;;;;;;61.00;43.75;;;;;12.14;64.51;101590.81;5092327;27;51850;-79
2022/03/05 00:08:18;;;;;;;;;52.25;40.00;;;;;12.09;64.38;101573.94;5074003;27;58579;-80
2022/03/05 00:10:43;;;;;;;;;55.75;41.75;;;;;12.13;64.62;101584.63;5093188;27;45985;-79
2022/03/05 00:13:08;;;;;;;;;50.25;41.00;;;;;12.14;64.55;101585.50;5093417;27;45380;-80
2022/03/05 00:15:34;;;;;;;;;60.25;44.75;;;;;12.14;64.48;101588.16;5092783;27;53131;-80
2022/03/05 00:17:59;;;;;;;;;48.75;40.50;;;;;12.14;64.45;101590.81;5092206;27;62434;-79
2022/03/05 00:20:25;;;;;;;;;55.00;40.50;;;;;12.11;64.38;101577.53;5090652;27;45474;-80
2022/03/05 00:22:53;;;;;;;;;55.75;45.00;;;;;12.12;64.41;101577.56;5084184;27;45565;-79
2022/03/05 00:25:20;;;;;;;;;56.50;41.00;;;;;12.09;64.57;101574.88;5092982;27;45541;-79
2022/03/05 00:27:46;;;;;;;;;52.00;41.25;;;;;12.10;64.44;101579.28;5091756;27;45429;-80
2022/03/05 00:30:11;;;;;;;;;52.25;43.00;;;;;12.09;64.34;101577.53;5092599;27;45393;-79
2022/03/05 00:32:37;;;;;;;;;59.00;41.75;;;;;12.09;64.37;101581.91;5087583;27;45620;-80
2022/03/05 00:35:02;;;;;;;;;57.75;44.50;;;;;12.09;64.58;101584.53;5088917;27;46397;-80
2022/03/05 00:37:28;;;;;;;;;54.25;43.00;;;;;12.09;64.49;101580.16;5093415;27;45457;-79
2022/03/05 00:39:53;;;;;;;;;49.50;39.25;;;;;12.06;64.75;101572.16;5091868;27;45389;-79
2022/03/05 00:42:18;;;;;;;;;51.25;39.25;;;;;12.11;64.90;101581.06;5092573;27;45752;-79
2022/03/05 00:44:44;;;;;;;;;50.50;41.00;;;;;12.12;64.56;101577.56;5091306;27;58183;-80
2022/03/05 00:47:09;;;;;;;;;55.25;44.50;;;;;12.12;64.45;101571.38;5091847;27;60631;-80
2022/03/05 00:49:35;;;;;;;;;54.00;40.25;;;;;12.12;64.58;101580.19;5092876;27;45758;-79
2022/03/05 00:52:00;;;;;;;;;56.25;43.00;;;;;12.11;64.73;101575.78;5092217;27;45556;-79
2022/03/05 00:54:26;;;;;;;;;53.50;42.50;;;;;12.12;64.50;101574.03;5092079;27;61206;-79
2022/03/05 00:56:51;;;;;;;;;57.50;44.00;;;;;12.10;64.50;101573.13;5090738;27;61920;-79
2022/03/05 00:59:16;;;;;;;;;56.25;44.75;;;;;12.09;64.75;101569.59;5092049;27;45586;-79
2022/03/05 01:01:42;;;;;;;;;58.25;45.75;;;;;12.11;64.74;101570.47;5088679;27;51954;-80
2022/03/05 01:04:07;;;;;;;;;52.00;41.00;;;;;12.13;64.62;101562.56;5090774;27;62836;-80
2022/03/05 01:06:33;;;;;;;;;58.00;40.75;;;;;12.14;64.53;101566.97;5092966;27;47136;-80
2022/03/05 01:09:02;;;;;;;;;56.00;44.00;;;;;12.10;64.57;101559.88;5092136;27;45633;-79
2022/03/05 01:11:28;;;;;;;;;50.25;41.50;;;;;12.14;64.56;101573.16;5092452;27;45579;-80
2022/03/05 01:13:53;;;;;;;;;54.50;43.75;;;;;12.15;64.60;101571.44;5092653;27;47377;-80
2022/03/05 01:16:19;;;;;;;;;58.25;43.25;;;;;12.15;64.50;101566.16;5092313;27;56412;-79
2022/03/05 01:18:44;;;;;;;;;50.75;40.00;;;;;12.17;64.70;101573.22;5092816;27;45614;-79
2022/03/05 01:21:09;;;;;;;;;54.00;43.00;;;;;12.18;64.65;101567.06;5091850;27;45818;-79
2022/03/05 01:23:35;;;;;;;;;57.00;42.00;;;;;12.20;64.71;101570.66;5092027;27;51920;-79
2022/03/05 01:26:00;;;;;;;;;55.25;41.00;;;;;12.19;64.67;101571.47;5091647;27;57067;-79
2022/03/05 01:28:26;;;;;;;;;59.75;43.50;;;;;12.18;64.54;101563.53;5092314;27;45741;-79
2022/03/05 01:30:51;;;;;;;;;54.75;41.00;;;;;12.20;64.75;101564.47;5091117;27;45532;-79
2022/03/05 01:33:17;;;;;;;;;55.50;41.25;;;;;12.23;64.62;101564.50;5091749;27;57946;-80
2022/03/05 01:35:43;;;;;;;;;56.75;41.50;;;;;12.23;64.85;101562.72;5091400;27;45830;-79
2022/03/05 01:38:09;;;;;;;;;55.00;42.50;;;;;12.23;64.58;101573.31;5074057;27;45759;-79
2022/03/05 01:40:34;;;;;;;;;52.25;40.75;;;;;12.23;64.62;101569.78;5092078;27;45610;-79
2022/03/05 01:42:59;;;;;;;;;53.00;39.50;;;;;12.24;64.63;101576.84;5091416;27;57668;-80
2022/03/05 01:45:25;;;;;;;;;54.25;41.25;;;;;12.23;64.58;101572.44;5091908;27;47908;-79
2022/03/05 01:47:51;;;;;;;;;45.50;39.25;;;;;12.23;64.64;101569.78;5092480;27;45574;-79
2022/03/05 01:50:16;;;;;;;;;48.75;40.75;;;;;12.22;64.47;101571.53;5089826;27;53042;-79
2022/03/05 01:52:41;;;;;;;;;56.25;41.25;;;;;12.22;64.63;101568.00;5092202;27;61805;-80
2022/03/05 01:55:07;;;;;;;;;52.25;37.50;;;;;12.21;64.78;101567.13;5095187;27;54061;-79
2022/03/05 01:57:32;;;;;;;;;56.00;43.75;;;;;12.21;64.48;101577.72;5095343;27;45478;-79
2022/03/05 01:59:58;;;;;;;;;55.25;43.25;;;;;12.20;64.70;101569.75;5093862;27;45563;-80
2022/03/05 02:02:23;;;;;;;;;57.25;43.50;;;;;12.20;64.54;101575.06;5094061;27;46615;-80
2022/03/05 02:04:49;;;;;;;;;54.00;44.25;;;;;12.18;64.51;101579.41;5094500;27;57796;-79
2022/03/05 02:07:14;;;;;;;;;57.25;45.00;;;;;12.17;64.68;101581.16;5094223;27;55248;-80
2022/03/05 02:09:40;;;;;;;;;56.25;44.00;;;;;12.18;64.65;101582.94;5111295;27;45917;-79
2022/03/05 02:12:05;;;;;;;;;54.25;42.25;;;;;12.18;64.74;101584.69;5094501;27;61788;-80
2022/03/05 02:14:31;;;;;;;;;52.25;40.75;;;;;12.18;64.51;101574.13;5095550;27;45850;-80
2022/03/05 02:16:56;;;;;;;;;54.00;38.00;;;;;12.16;64.76;101574.09;5094387;27;56933;-79
2022/03/05 02:19:22;;;;;;;;;56.50;42.00;;;;;12.12;64.68;101571.38;5095694;27;45737;-80
2022/03/05 02:21:47;;;;;;;;;59.25;45.00;;;;;12.11;64.71;101575.78;5092299;27;61801;-79
2022/03/05 02:24:13;;;;;;;;;52.00;39.75;;;;;12.02;64.78;101560.63;5095158;27;45511;-79
2022/03/05 02:26:38;;;;;;;;;55.50;43.25;;;;;12.07;64.77;101571.28;5094154;27;45875;-79
2022/03/05 02:29:04;;;;;;;;;53.25;43.25;;;;;12.05;64.86;101570.38;5094771;27;53400;-79
2022/03/05 02:31:29;;;;;;;;;54.50;41.75;;;;;12.02;64.83;101570.31;5092855;27;61535;-80
2022/03/05 02:33:55;;;;;;;;;57.75;41.00;;;;;12.01;65.07;101569.44;5093672;27;58880;-79
2022/03/05 02:36:21;;;;;;;;;53.00;40.75;;;;;12.01;64.95;101561.50;5094404;27;45490;-80
2022/03/05 02:38:47;;;;;;;;;56.75;45.00;;;;;12.01;64.96;101568.53;5095511;27;45557;-80
2022/03/05 02:41:12;;;;;;;;;59.50;45.00;;;;;12.00;65.00;101567.66;5094245;27;45522;-80
2022/03/05 02:43:37;;;;;;;;;52.00;38.50;;;;;12.00;65.20;101564.13;5094037;27;60645;-80
2022/03/05 02:46:03;;;;;;;;;55.00;41.25;;;;;11.98;65.22;101553.50;5094323;27;55677;-79
2022/03/05 02:48:29;;;;;;;;;52.75;40.50;;;;;11.97;65.14;101556.13;5093564;27;45433;-80
2022/03/05 02:50:54;;;;;;;;;52.00;39.25;;;;;11.96;65.06;101554.34;5087672;27;48324;-80
2022/03/05 02:53:20;;;;;;;;;58.00;41.00;;;;;11.94;65.09;101551.69;5093957;27;47976;-79
2022/03/05 02:55:46;;;;;;;;;51.50;41.00;;;;;11.95;65.13;101547.28;5094928;27;45505;-79
2022/03/05 02:58:11;;;;;;;;;52.50;39.50;;;;;11.89;65.23;101542.78;5110385;27;45606;-79
2022/03/05 03:00:36;;;;;;;;;55.00;40.00;;;;;11.92;65.21;101553.38;5093848;27;46660;-79
2022/03/05 03:03:02;;;;;;;;;52.50;41.00;;;;;11.93;65.22;101541.97;5092584;27;45506;-80
2022/03/05 03:05:27;;;;;;;;;52.00;41.00;;;;;11.94;65.21;101548.16;5093948;27;48359;-80
2022/03/05 03:07:53;;;;;;;;;48.00;36.75;;;;;11.92;65.33;101531.34;5094228;27;55518;-79
2022/03/05 03:10:18;;;;;;;;;52.00;41.00;;;;;11.94;65.14;101538.44;5094349;27;45738;-80
2022/03/05 03:12:44;;;;;;;;;54.50;43.75;;;;;11.91;65.45;101538.38;5089368;27;59473;-80
2022/03/05 03:15:13;;;;;;;;;60.75;43.50;;;;;11.88;65.11;101535.69;5076201;27;45492;-79
2022/03/05 03:17:43;;;;;;;;;56.75;42.25;;;;;11.84;65.44;101525.94;5092992;27;45634;-80
2022/03/05 03:20:12;;;;;;;;;60.50;46.50;;;;;11.89;65.25;101537.47;5093679;27;46564;-79
2022/03/05 03:22:38;;;;;;;;;52.25;41.25;;;;;11.88;65.43;101533.06;5092704;27;45523;-79
2022/03/05 03:25:04;;;;;;;;;54.75;39.25;;;;;11.92;65.32;101541.91;5092194;27;45757;-80
2022/03/05 03:27:29;;;;;;;;;51.50;42.00;;;;;11.93;65.28;101534.03;5094294;27;45522;-80
2022/03/05 03:29:55;;;;;;;;;57.00;43.50;;;;;11.95;65.26;101536.69;5093715;27;48421;-79
2022/03/05 03:32:20;;;;;;;;;58.00;41.00;;;;;11.96;65.43;101539.34;5093818;27;57963;-79
2022/03/05 03:34:45;;;;;;;;;50.75;41.00;;;;;11.95;65.35;101537.56;5091962;27;57719;-79
2022/03/05 03:37:11;;;;;;;;;61.50;43.50;;;;;11.97;65.38;101534.94;5092829;27;55749;-79
2022/03/05 03:39:36;;;;;;;;;55.50;41.50;;;;;11.95;65.35;101534.94;5092868;27;63141;-80
2022/03/05 03:42:02;;;;;;;;;47.00;37.25;;;;;11.99;65.23;101541.19;5093271;27;58125;-80
2022/03/05 03:44:27;;;;;;;;;57.00;42.25;;;;;11.94;65.04;101535.81;5094033;27;45593;-80
2022/03/05 03:46:53;;;;;;;;;50.75;41.00;;;;;12.00;65.33;101545.59;5109728;27;45828;-79
2022/03/05 03:49:18;;;;;;;;;50.50;39.50;;;;;11.99;65.24;101550.00;5092019;27;45613;-79
2022/03/05 03:51:44;;;;;;;;;56.25;38.25;;;;;11.99;65.27;101539.41;5093454;27;45869;-80
2022/03/05 03:54:09;;;;;;;;;48.25;39.00;;;;;12.00;65.35;101540.31;5093613;27;45980;-80
2022/03/05 03:56:34;;;;;;;;;54.50;41.25;;;;;11.99;65.28;101542.06;5094272;27;45804;-79
2022/03/05 03:59:00;;;;;;;;;49.00;38.75;;;;;11.97;65.36;101538.47;5091602;27;61299;-79
2022/03/05 04:01:25;;;;;;;;;51.75;40.50;;;;;11.95;65.15;101534.94;5093660;27;52376;-79
2022/03/05 04:03:51;;;;;;;;;55.00;40.00;;;;;11.97;65.30;101535.84;5093146;27;56424;-79
2022/03/05 04:06:16;;;;;;;;;57.75;40.50;;;;;11.98;65.24;101540.25;5093808;27;45515;-80
2022/03/05 04:08:43;;;;;;;;;50.50;38.00;;;;;11.98;65.23;101542.00;5092850;27;46634;-80
2022/03/05 04:11:13;;;;;;;;;46.75;37.25;;;;;11.96;65.26;101543.75;5093376;27;45580;-79
2022/03/05 04:13:39;;;;;;;;;48.00;37.50;;;;;11.97;65.27;101545.53;5063503;27;45785;-80
2022/03/05 04:16:05;;;;;;;;;49.50;38.75;;;;;11.96;65.14;101543.75;5090569;27;45398;-80
2022/03/05 04:18:30;;;;;;;;;42.50;32.50;;;;;11.92;65.25;101541.91;5093255;27;46224;-79
2022/03/05 04:20:56;;;;;;;;;49.75;36.75;;;;;11.96;65.13;101539.34;5075544;27;45608;-79
2022/03/05 04:23:21;;;;;;;;;45.00;37.00;;;;;11.95;64.86;101545.50;5092868;27;45524;-79
2022/03/05 04:25:47;;;;;;;;;48.50;34.00;;;;;11.95;64.99;101549.91;5091619;27;50202;-80
2022/03/05 04:28:12;;;;;;;;;49.75;37.50;;;;;11.94;64.74;101540.22;5092415;27;45586;-79
2022/03/05 04:30:37;;;;;;;;;46.00;35.00;;;;;11.90;64.83;101541.00;5090675;27;58154;-79
2022/03/05 04:33:03;;;;;;;;;50.25;37.50;;;;;11.90;64.72;101535.72;5091929;27;45435;-79
2022/03/05 04:35:28;;;;;;;;;41.50;35.25;;;;;11.93;64.58;101547.25;5108839;27;45477;-80
2022/03/05 04:37:54;;;;;;;;;40.25;33.25;;;;;11.92;64.53;101550.75;5092467;27;46754;-79
2022/03/05 04:40:19;;;;;;;;;45.00;35.50;;;;;11.89;64.53;101550.72;5091827;27;61731;-80
2022/03/05 04:42:44;;;;;;;;;47.00;33.25;;;;;11.89;64.76;101555.13;5092651;27;45557;-80
2022/03/05 04:45:10;;;;;;;;;44.25;32.25;;;;;11.84;64.51;101548.84;5091085;27;52694;-79
2022/03/05 04:47:36;;;;;;;;;40.50;33.75;;;;;11.86;64.57;101563.88;5092809;27;45985;-79
2022/03/05 04:50:02;;;;;;;;;45.25;36.00;;;;;11.84;64.45;101557.69;5090208;27;45811;-80
2022/03/05 04:52:27;;;;;;;;;36.50;31.50;;;;;11.84;64.47;101565.63;5090543;27;45562;-79
2022/03/05 04:54:53;;;;;;;;;36.50;32.00;;;;;11.83;64.40;101560.31;5073790;27;53008;-80
2022/03/05 04:57:19;;;;;;;;;41.50;33.75;;;;;11.82;64.55;101569.97;5092376;27;59523;-80
2022/03/05 04:59:44;;;;;;;;;37.75;29.50;;;;;11.77;64.61;101559.28;5091087;27;45558;-80
2022/03/05 05:02:09;;;;;;;;;34.50;31.00;;;;;11.80;64.44;101563.75;5093076;27;45503;-79
2022/03/05 05:04:35;;;;;;;;;31.25;26.25;;;;;11.79;64.52;101560.19;5092580;27;45475;-79
2022/03/05 05:07:00;;;;;;;;;31.50;28.00;;;;;11.74;64.49;101551.28;5092971;27;47342;-79
2022/03/05 05:09:26;;;;;;;;;37.75;33.00;;;;;11.76;64.45;101568.06;5098506;27;61147;-80
2022/03/05 05:11:51;;;;;;;;;31.25;27.75;;;;;11.75;64.51;101565.41;5091706;27;45477;-79
2022/03/05 05:14:17;;;;;;;;;30.75;28.75;;;;;11.75;64.53;101570.69;5092480;27;51760;-79
2022/03/05 05:16:42;;;;;;;;;40.00;31.25;;;;;11.75;64.50;101568.94;5092100;27;54161;-79
2022/03/05 05:19:27;;;;;;;;;43.50;34.25;;;;;11.75;64.46;101571.59;5091735;27;57238;-79
2022/03/05 05:21:57;;;;;;;;;37.75;25.75;;;;;11.74;64.45;101579.50;5089699;27;46417;-79
2022/03/05 05:24:26;;;;;;;;;34.25;29.75;;;;;11.70;64.42;101578.53;5092604;27;45527;-79
2022/03/05 05:26:53;;;;;;;;;40.00;35.50;;;;;11.71;64.60;101574.16;5093597;27;46572;-79
2022/03/05 05:29:18;;;;;;;;;42.00;31.75;;;;;11.67;64.64;101573.22;5092055;27;45570;-79
2022/03/05 05:31:44;;;;;;;;;33.50;29.75;;;;;11.68;64.60;101574.09;5094254;27;45454;-79
2022/03/05 05:34:09;;;;;;;;;36.75;29.00;;;;;11.66;64.62;101570.53;5094691;27;46787;-79
2022/03/05 05:36:38;;;;;;;;;38.00;32.25;;;;;11.64;64.67;101583.72;5092768;27;67028;-79
2022/03/05 05:39:04;;;;;;;;;40.75;34.25;;;;;11.62;64.71;101574.00;5096354;27;45459;-80
2022/03/05 05:41:29;;;;;;;;;37.75;35.25;;;;;11.54;64.77;101572.09;5093925;27;45854;-80
2022/03/05 05:43:55;;;;;;;;;34.00;29.25;;;;;11.58;64.67;101585.38;5110954;27;53114;-79
2022/03/05 05:46:20;;;;;;;;;38.00;32.75;;;;;11.55;65.00;101589.72;5095174;27;62120;-79
2022/03/05 05:48:46;;;;;;;;;40.25;32.50;;;;;11.57;64.93;101588.91;5077558;27;46883;-80
2022/03/05 05:51:11;;;;;;;;;44.25;34.75;;;;;11.58;64.82;101593.31;5094553;27;56367;-80
2022/03/05 05:53:36;;;;;;;;;40.50;34.00;;;;;11.54;64.99;101595.00;5095970;27;45470;-79
2022/03/05 05:56:02;;;;;;;;;36.00;32.25;;;;;11.51;64.97;101579.97;5095378;27;45585;-80
2022/03/05 05:58:27;;;;;;;;;36.25;32.75;;;;;11.54;64.97;101587.94;5094435;27;45399;-79
2022/03/05 06:00:53;;;;;;;;;47.25;35.00;;;;;11.48;65.02;101576.38;5093883;27;51033;-79
2022/03/05 06:03:18;;;;;;;;;45.00;34.75;;;;;11.48;64.92;101585.19;5095271;27;49395;-80
2022/03/05 06:05:43;;;;;;;;;31.75;29.75;;;;;11.51;64.96;101592.31;5090720;27;46856;-80
2022/03/05 06:08:09;;;;;;;;;42.00;34.75;;;;;11.51;65.12;101592.31;5093607;27;46323;-79
2022/03/05 06:10:34;;;;;;;;;41.25;35.00;;;;;11.53;65.37;101595.88;5094769;27;45419;-79
2022/03/05 06:13:00;;;;;;;;;37.75;35.25;;;;;11.52;64.98;101597.63;5090539;27;45915;-79
2022/03/05 06:15:25;;;;;;;;;50.50;37.00;;;;;11.53;65.15;101598.50;5094564;27;61392;-79
2022/03/05 06:17:50;;;;;;;;;54.00;39.50;;;;;11.50;65.03;101590.50;5094278;27;59677;-79
2022/03/05 06:20:16;;;;;;;;;49.75;38.00;;;;;11.51;64.99;101592.31;5094660;27;45539;-80
2022/03/05 06:22:41;;;;;;;;;47.25;35.00;;;;;11.50;65.08;101596.72;5093497;27;46313;-80
2022/03/05 06:25:07;;;;;;;;;44.00;36.00;;;;;11.50;65.18;101602.00;5094640;27;48286;-79
2022/03/05 06:27:33;;;;;;;;;45.50;32.00;;;;;11.49;65.17;101600.19;5094476;27;45466;-80
2022/03/05 06:29:58;;;;;;;;;43.00;34.50;;;;;11.43;65.13;101578.03;5091418;27;46772;-79
2022/03/05 06:32:24;;;;;;;;;54.00;37.75;;;;;11.50;65.10;101598.44;5089659;27;45675;-80
2022/03/05 06:34:49;;;;;;;;;41.50;35.00;;;;;11.44;65.08;101582.44;5093106;27;47824;-80
2022/03/05 06:37:14;;;;;;;;;48.25;37.50;;;;;11.49;65.29;101594.00;5078022;27;45788;-79
2022/03/05 06:39:40;;;;;;;;;41.00;35.25;;;;;11.47;65.01;101588.72;5092045;27;55878;-79
2022/03/05 06:42:06;;;;;;;;;50.75;37.00;;;;;11.49;65.35;101594.00;5097239;27;45439;-80
2022/03/05 06:44:31;;;;;;;;;47.00;35.75;;;;;11.52;65.30;101594.09;5097145;27;45462;-81
2022/03/05 06:46:58;;;;;;;;;43.00;36.00;;;;;11.57;65.15;101603.00;5096180;27;45857;-81
2022/03/05 06:49:23;;;;;;;;;42.50;35.75;;;;;11.59;65.23;101610.97;5096381;27;45484;-80
2022/03/05 06:51:48;;;;;;;;;42.75;35.00;;;;;11.61;65.19;101615.44;5092108;27;55125;-80
2022/03/05 06:54:14;;;;;;;;;46.00;35.25;;;;;11.64;65.01;101611.94;5089014;27;61620;-80
2022/03/05 06:56:39;;;;;;;;;38.75;31.75;;;;;11.63;64.99;101612.81;5092990;27;59620;-80
2022/03/05 06:59:04;;;;;;;;;38.25;31.50;;;;;11.69;64.99;101627.03;5090198;27;46003;-81
2022/03/05 07:01:30;;;;;;;;;40.00;34.25;;;;;11.70;65.06;101614.69;5094879;27;54725;-78
2022/03/05 07:03:55;;;;;;;;;38.50;33.25;;;;;11.74;64.95;101622.72;5097160;27;62831;-79
2022/03/05 07:06:21;;;;;;;;;35.25;32.75;;;;;11.76;64.76;101620.09;5086253;27;55201;-78
2022/03/05 07:08:46;;;;;;;;;48.75;36.75;;;;;11.77;64.77;101630.72;5096372;27;45512;-79
2022/03/05 07:11:12;;;;;;;;;46.00;39.75;;;;;11.79;64.63;101621.06;5094139;27;57973;-80
2022/03/05 07:13:37;;;;;;;;;45.25;34.25;;;;;11.80;64.65;101627.25;5095504;27;54290;-79
2022/03/05 07:16:03;;;;;;;;;40.50;34.00;;;;;11.81;64.57;101636.94;5094486;27;62864;-80
2022/03/05 07:18:28;;;;;;;;;42.75;34.50;;;;;11.75;64.71;101626.25;5097705;27;45361;-79
2022/03/05 07:20:54;;;;;;;;;45.75;35.50;;;;;11.82;64.51;101640.53;5094235;27;45546;-79
2022/03/05 07:23:19;;;;;;;;;49.50;38.25;;;;;11.81;64.57;101634.31;5094617;27;56557;-79
2022/03/05 07:25:44;;;;;;;;;51.50;38.50;;;;;11.80;64.49;101638.72;5093371;27;45906;-79
2022/03/05 07:28:10;;;;;;;;;46.50;38.25;;;;;11.83;64.55;101645.88;5094664;27;57120;-80
2022/03/05 07:30:37;;;;;;;;;47.00;37.75;;;;;11.85;64.49;101644.13;5090221;27;46124;-77
2022/03/05 07:33:02;;;;;;;;;49.75;34.25;;;;;11.86;64.57;101648.56;5096408;27;47385;-78
2022/03/05 07:35:28;;;;;;;;;48.25;38.00;;;;;11.88;64.44;101643.28;5096357;27;45448;-78
2022/03/05 07:37:53;;;;;;;;;49.00;38.25;;;;;11.89;64.34;101647.75;5094572;27;45608;-78
2022/03/05 07:40:19;;;;;;;;;52.25;37.25;;;;;11.88;64.21;101645.94;5089357;27;45545;-79
2022/03/05 07:42:44;;;;;;;;;45.75;35.25;;;;;11.89;64.30;101648.63;5096145;27;46639;-77
2022/03/05 07:45:09;;;;;;;;;47.50;38.00;;;;;11.92;64.43;101655.72;5096718;27;56039;-78
2022/03/05 07:47:35;;;;;;;;;40.25;36.00;;;;;11.92;64.17;101661.00;5095952;27;49755;-78
2022/03/05 07:50:01;;;;;;;;;52.25;38.50;;;;;11.90;64.10;101658.34;5090456;27;54051;-79
2022/03/05 07:52:26;;;;;;;;;55.50;40.50;;;;;11.97;64.12;101659.34;5190389;22;46813;-80
2022/03/05 07:54:52;;;;;;;;;51.25;38.00;;;;;11.91;64.01;101660.13;5074594;28;45480;-74
2022/03/05 07:57:17;;;;;;;;;56.25;41.50;;;;;11.79;64.18;101659.84;5075266;28;45501;-76
2022/03/05 07:59:42;;;;;;;;;54.50;40.00;;;;;11.68;64.34;101674.63;5071340;28;45884;-74
2022/03/05 08:02:08;;;;;;;;;54.25;40.00;;;;;11.53;64.95;101660.22;5075171;28;46726;-74
2022/03/05 08:04:33;;;;;;;;;48.25;38.00;;;;;11.41;65.43;101675.84;5072997;28;45817;-74
2022/03/05 08:06:59;;;;;;;;;44.00;38.25;;;;;11.35;65.44;101664.25;5074011;27;46989;-74
2022/03/05 08:09:24;;;;;;;;;40.00;33.00;;;;;11.26;65.70;101671.13;5076451;28;45271;-74
2022/03/05 08:11:50;;;;;;;;;55.00;40.25;;;;;11.19;65.59;101669.22;5072516;28;62499;-74
2022/03/05 08:14:15;;;;;;;;;54.75;38.25;;;;;11.14;66.26;101672.63;5076215;28;55061;-74
2022/03/05 08:16:40;;;;;;;;;56.25;40.25;;;;;11.13;66.62;101676.09;5075717;28;56910;-73
2022/03/05 08:19:06;;;;;;;;;50.25;37.25;;;;;11.08;66.71;101673.38;5075328;28;54457;-73
2022/03/05 08:21:32;;;;;;;;;53.50;40.25;;;;;11.08;66.62;101680.38;5075257;28;62119;-73
2022/03/05 08:23:58;;;;;;;;;54.75;36.00;;;;;11.08;66.25;101683.03;5076169;28;45508;-74
2022/03/05 08:26:23;;;;;;;;;48.75;39.25;;;;;11.05;66.73;101675.94;5074779;28;55451;-74
2022/03/05 08:28:49;;;;;;;;;53.50;37.25;;;;;11.03;66.68;101672.38;5076129;28;56455;-75
2022/03/05 08:31:14;;;;;;;;;59.75;40.25;;;;;11.00;66.76;101669.66;5073526;28;50365;-77
2022/03/05 08:33:39;;;;;;;;;51.75;39.25;;;;;11.06;66.62;101677.72;5071347;28;50188;-76
2022/03/05 08:36:05;;;;;;;;;55.25;42.00;;;;;11.09;66.52;101672.50;5076793;28;45592;-80
2022/03/05 08:38:31;;;;;;;;;53.50;38.25;;;;;11.22;66.17;101669.25;5058648;28;45514;-80
2022/03/05 08:40:58;;;;;;;;;56.75;41.75;;;;;11.36;66.08;101672.22;5076376;28;46571;-80
2022/03/05 08:43:24;;;;;;;;;58.25;43.00;;;;;11.53;65.68;101673.44;5057098;28;45476;-80
2022/03/05 08:45:49;;;;;;;;;50.50;40.50;;;;;11.67;65.65;101676.41;5076863;28;45474;-79
2022/03/05 08:48:15;;;;;;;;;52.50;38.00;;;;;11.77;64.97;101665.13;5058252;28;45345;-79
2022/03/05 08:50:40;;;;;;;;;54.00;43.50;;;;;11.94;65.00;101672.53;5056454;28;63900;-80
2022/03/05 08:53:05;;;;;;;;;58.00;43.25;;;;;12.04;64.80;101678.03;5056920;28;58078;-80
2022/03/05 08:55:31;;;;;;;;;59.25;44.25;;;;;12.14;64.58;101678.16;5074744;28;46023;-80
2022/03/05 08:57:56;;;;;;;;;54.50;43.00;;;;;12.25;64.52;101684.53;5057583;28;45466;-79
2022/03/05 09:00:22;;;;;;;;;53.75;40.50;;;;;12.33;64.18;101680.28;5073902;28;53917;-79
2022/03/05 09:02:47;;;;;;;;;59.25;44.75;;;;;12.41;64.01;101683.97;5074518;28;58514;-78
2022/03/05 09:05:14;;;;;;;;;56.50;42.25;;;;;12.48;63.86;101663.78;5076067;28;45383;-78
2022/03/05 09:07:40;;;;;;;;;53.00;41.75;;;;;12.54;63.92;101667.41;5060053;28;45640;-79
2022/03/05 09:10:06;;;;;;;;;56.50;42.25;;;;;12.69;63.45;101673.84;5057934;28;46796;-78
2022/03/05 09:12:32;;;;;;;;;54.75;41.00;;;;;12.75;63.13;101676.56;5076240;28;45510;-80
2022/03/05 09:14:57;;;;;;;;;55.00;41.75;;;;;12.77;63.16;101664.22;5069999;28;45346;-80
2022/03/05 09:17:23;;;;;;;;;59.00;42.00;;;;;12.85;63.16;101666.13;5076629;28;45406;-80
2022/03/05 09:19:48;;;;;;;;;55.00;43.25;;;;;12.94;63.01;101664.47;5075400;28;60890;-80
2022/03/05 09:22:14;;;;;;;;;55.25;42.25;;;;;13.02;62.82;101669.03;5074318;28;62222;-79
2022/03/05 09:24:39;;;;;;;;;48.50;38.00;;;;;13.10;62.73;101678.00;5057273;28;54503;-79
2022/03/05 09:27:05;;;;;;;;;48.00;37.75;;;;;13.20;62.74;101668.38;5076839;27;45498;-78
2022/03/05 09:29:30;;;;;;;;;50.75;39.00;;;;;13.30;62.32;101680.94;5058381;28;56076;-78
2022/03/05 09:31:55;;;;;;;;;44.75;34.00;;;;;13.37;62.20;101679.28;5073581;27;45424;-78
2022/03/05 09:34:21;;;;;;;;;54.00;40.00;;;;;13.46;62.12;101681.13;5076636;27;55602;-78
2022/03/05 09:36:46;;;;;;;;;50.50;38.50;;;;;13.49;61.74;101671.47;5074936;27;45283;-79
2022/03/05 09:39:12;;;;;;;;;55.75;40.00;;;;;13.62;61.24;101677.81;5074008;27;61721;-78
2022/03/05 09:41:39;;;;;;;;;53.00;40.25;;;;;13.67;61.24;101672.56;5074801;27;60541;-78
2022/03/05 09:44:05;;;;;;;;;58.50;42.00;;;;;13.79;61.07;101675.34;5058068;28;45541;-78
2022/03/05 09:46:30;;;;;;;;;56.25;42.25;;;;;13.83;61.12;101671.84;5075720;28;45616;-78
2022/03/05 09:48:55;;;;;;;;;50.25;36.50;;;;;13.88;61.14;101673.69;5057190;28;60883;-79
2022/03/05 09:51:22;;;;;;;;;56.75;42.50;;;;;13.96;60.49;101673.78;5037086;28;60714;-78
2022/03/05 09:53:47;;;;;;;;;51.50;39.75;;;;;14.03;60.39;101674.72;5056772;28;45315;-78
2022/03/05 09:56:13;;;;;;;;;54.50;42.75;;;;;14.07;60.29;101674.78;5075971;28;45465;-78
2022/03/05 09:58:39;;;;;;;;;60.50;43.50;;;;;14.14;60.24;101673.97;5072789;28;61112;-78
2022/03/05 10:01:05;;;;;;;;;60.75;43.25;;;;;14.13;59.39;101668.63;5075487;28;45382;-78
2022/03/05 10:03:49;;;;;;;;;58.50;44.00;;;;;14.09;60.03;101670.38;5073913;28;55195;-78
2022/03/05 10:06:24;;;;;;;;;60.50;46.50;;;;;14.18;60.01;101668.69;5059628;28;46373;-79
2022/03/05 10:08:55;;;;;;;;;54.25;42.00;;;;;14.13;59.35;101660.66;5075017;28;45839;-79
2022/03/05 10:11:21;;;;;;;;;57.00;43.25;;;;;14.19;59.22;101663.38;5075498;28;45389;-78
2022/03/05 10:13:46;;;;;;;;;53.75;42.00;;;;;14.24;59.30;101677.59;5075535;28;45476;-79
2022/03/05 10:16:24;;;;;;;;;58.75;43.00;;;;;14.28;59.22;101678.53;5061078;28;45460;-78
2022/03/05 10:18:49;;;;;;;;;61.00;48.50;;;;;14.33;58.76;101675.03;5078468;28;47059;-78
2022/03/05 10:21:16;;;;;;;;;58.50;45.00;;;;;14.41;58.96;101680.41;5059677;28;45534;-79
2022/03/05 10:23:47;;;;;;;;;56.00;43.75;;;;;14.48;58.85;101673.41;5078503;28;45523;-79
2022/03/05 10:26:14;;;;;;;;;56.50;45.50;;;;;14.53;58.83;101675.22;5078878;28;45650;-78
2022/03/05 10:28:40;;;;;;;;;59.75;43.00;;;;;14.56;58.66;101667.28;5078500;28;47414;-78
2022/03/05 10:31:08;;;;;;;;;58.25;42.25;;;;;14.63;58.88;101674.41;5076254;28;45264;-78
2022/03/05 10:33:41;;;;;;;;;56.75;44.00;;;;;14.71;58.77;101668.28;5057118;28;45372;-78
2022/03/05 10:36:07;;;;;;;;;55.75;42.50;;;;;14.74;57.90;101676.28;5076295;28;45617;-78
2022/03/05 10:38:45;;;;;;;;;57.75;44.50;;;;;14.72;57.60;101673.59;5077967;28;46538;-78
2022/03/05 10:41:10;;;;;;;;;60.00;44.50;;;;;14.68;57.91;101669.13;5078384;28;45338;-78
2022/03/05 10:43:36;;;;;;;;;53.50;43.75;;;;;14.68;57.71;101671.78;5078459;28;45678;-78
2022/03/05 10:46:01;;;;;;;;;55.50;43.50;;;;;14.68;58.18;101667.38;5057026;27;50503;-78
2022/03/05 10:48:28;;;;;;;;;59.25;44.50;;;;;14.66;57.54;101671.78;5080936;27;46399;-78
2022/03/05 10:50:58;;;;;;;;;57.50;45.75;;;;;14.63;57.36;101673.53;5077581;27;45487;-79
2022/03/05 10:53:39;;;;;;;;;53.50;40.50;;;;;14.64;57.97;101672.66;5077784;27;45423;-79
2022/03/05 10:56:29;;;;;;;;;56.00;45.75;;;;;14.63;57.35;101663.78;5058563;28;45858;-78
2022/03/05 10:59:03;;;;;;;;;60.00;44.00;;;;;14.70;57.16;101671.81;5074820;27;46484;-78
2022/03/05 11:01:29;;;;;;;;;59.00;44.75;;;;;14.76;57.29;101669.22;5075995;27;45473;-78
2022/03/05 11:03:55;;;;;;;;;53.50;43.00;;;;;14.84;57.87;101662.16;5077572;27;45203;-79